createdAt,value
2019-02-04T00:00:33.531Z,10.37
2019-02-04T00:03:06.165Z,11.73
2019-02-04T00:05:37.238Z,13.33
2019-02-04T00:08:09.573Z,14.10
2019-02-04T00:10:41.754Z,13.30
2019-02-04T00:13:14.004Z,11.57
2019-02-04T00:15:46.167Z,17.40
2019-02-04T00:18:18.260Z,13.47
2019-02-04T00:20:50.489Z,16.23
2019-02-04T00:23:23.081Z,14.13
2019-02-04T00:25:55.291Z,13.77
2019-02-04T00:28:27.444Z,14.93
2019-02-04T00:30:59.615Z,12.83
2019-02-04T00:33:31.678Z,12.67
2019-02-04T00:36:03.916Z,13.80
2019-02-04T00:38:36.104Z,10.47
2019-02-04T00:41:08.299Z,17.50
2019-02-04T00:43:40.335Z,11.27
2019-02-04T00:46:12.546Z,10.73
2019-02-04T00:48:44.620Z,13.30
2019-02-04T00:51:16.700Z,12.13
2019-02-04T00:53:48.798Z,11.80
2019-02-04T00:56:21.057Z,15.50
2019-02-04T00:58:53.517Z,12.13
2019-02-04T01:01:26.071Z,12.83
2019-02-04T01:03:57.100Z,17.70
2019-02-04T01:06:29.362Z,13.63
2019-02-04T01:09:01.443Z,14.40
2019-02-04T01:11:34.024Z,19.77
2019-02-04T01:14:06.171Z,13.53
2019-02-04T01:16:38.373Z,16.23
2019-02-04T01:19:10.502Z,16.73
2019-02-04T01:21:42.708Z,15.07
2019-02-04T01:24:15.276Z,13.77
2019-02-04T01:26:47.360Z,20.50
2019-02-04T01:29:19.370Z,17.27
2019-02-04T01:31:51.584Z,16.30
2019-02-04T01:34:24.003Z,14.90
2019-02-04T01:36:56.195Z,14.73
2019-02-04T01:39:28.294Z,15.17
2019-02-04T01:42:00.501Z,10.67
2019-02-04T01:44:32.608Z,11.47
2019-02-04T01:47:14.393Z,11.13
2019-02-04T01:49:38.561Z,10.60
2019-02-04T01:52:10.779Z,9.70
2019-02-04T01:54:42.863Z,12.43
2019-02-04T01:57:15.412Z,11.97
2019-02-04T01:59:47.563Z,15.93
2019-02-04T02:02:19.713Z,14.43
2019-02-04T02:04:51.815Z,11.43
2019-02-04T02:07:24.032Z,17.07
2019-02-04T02:09:56.131Z,15.83
2019-02-04T02:12:28.432Z,10.60
2019-02-04T02:15:00.534Z,14.97
2019-02-04T02:17:32.592Z,13.10
2019-02-04T02:20:05.540Z,12.20
2019-02-04T02:22:37.779Z,12.57
2019-02-04T02:25:10.015Z,13.87
2019-02-04T02:27:42.327Z,12.20
2019-02-04T02:30:22.050Z,15.87
2019-02-04T02:32:54.224Z,11.97
2019-02-04T02:35:26.344Z,10.53
2019-02-04T02:37:58.644Z,12.17
2019-02-04T02:40:37.416Z,11.27
2019-02-04T02:43:11.776Z,10.57
2019-02-04T02:45:43.422Z,9.40
2019-02-04T02:48:15.634Z,9.30
2019-02-04T02:50:47.749Z,12.40
2019-02-04T02:53:19.887Z,13.43
2019-02-04T02:55:52.049Z,14.33
2019-02-04T02:58:24.229Z,17.07
2019-02-04T03:00:56.297Z,10.80
2019-02-04T03:03:28.456Z,9.03
2019-02-04T03:06:00.885Z,12.73
2019-02-04T03:08:32.975Z,15.10
2019-02-04T03:11:05.172Z,13.33
2019-02-04T03:13:37.409Z,10.63
2019-02-04T03:16:09.501Z,12.00
2019-02-04T03:18:41.690Z,12.03
2019-02-04T03:21:13.753Z,12.70
2019-02-04T03:23:45.978Z,9.83
2019-02-04T03:26:18.099Z,12.83
2019-02-04T03:28:50.425Z,9.97
2019-02-04T03:31:22.474Z,9.60
2019-02-04T03:33:54.666Z,13.17
2019-02-04T03:36:26.805Z,12.57
2019-02-04T03:38:59.029Z,11.40
2019-02-04T03:41:31.387Z,13.20
2019-02-04T03:44:03.588Z,10.33
2019-02-04T03:46:35.693Z,13.37
2019-02-04T03:49:07.953Z,12.60
2019-02-04T03:51:40.003Z,13.70
2019-02-04T03:54:12.129Z,9.93
2019-02-04T03:56:44.235Z,9.90
2019-02-04T03:59:16.622Z,10.43
2019-02-04T04:01:48.780Z,11.83
2019-02-04T04:04:21.415Z,10.17
2019-02-04T04:06:53.548Z,10.93
2019-02-04T04:09:25.683Z,8.87
2019-02-04T04:11:57.841Z,11.00
2019-02-04T04:14:30.018Z,11.37
2019-02-04T04:17:02.176Z,13.30
2019-02-04T04:19:34.400Z,12.10
2019-02-04T04:22:06.514Z,13.33
2019-02-04T04:24:38.736Z,10.77
2019-02-04T04:27:10.805Z,9.17
2019-02-04T04:29:43.013Z,8.47
2019-02-04T04:32:15.105Z,11.40
2019-02-04T04:34:47.214Z,9.17
2019-02-04T04:37:19.254Z,11.50
2019-02-04T04:39:51.942Z,9.20
2019-02-04T04:42:24.072Z,10.53
2019-02-04T04:44:56.171Z,13.27
2019-02-04T04:47:28.308Z,9.83
2019-02-04T04:50:00.440Z,9.77
2019-02-04T04:52:32.552Z,9.77
2019-02-04T04:55:04.797Z,11.00
2019-02-04T04:57:36.850Z,15.97
2019-02-04T05:00:13.211Z,12.20
2019-02-04T05:02:45.750Z,12.03
2019-02-04T05:05:18.195Z,12.20
2019-02-04T05:07:50.239Z,13.17
2019-02-04T05:10:22.670Z,15.00
2019-02-04T05:12:54.822Z,9.63
2019-02-04T05:15:30.841Z,13.23
2019-02-04T05:18:02.987Z,13.47
2019-02-04T05:20:35.188Z,10.83
2019-02-04T05:23:07.251Z,11.60
2019-02-04T05:25:39.815Z,14.87
2019-02-04T05:28:11.887Z,13.63
2019-02-04T05:30:42.905Z,11.63
2019-02-04T05:33:14.025Z,11.50
2019-02-04T05:35:45.043Z,10.50
2019-02-04T05:38:16.363Z,10.87
2019-02-04T05:40:47.463Z,12.90
2019-02-04T05:43:18.491Z,10.57
2019-02-04T05:45:49.519Z,11.37
2019-02-04T05:48:20.570Z,13.23
2019-02-04T05:50:51.933Z,13.90
2019-02-04T05:53:22.961Z,13.10
2019-02-04T05:55:54.293Z,10.87
2019-02-04T05:58:25.356Z,11.93
2019-02-04T06:00:56.488Z,11.30
2019-02-04T06:03:27.850Z,10.93
2019-02-04T06:05:58.863Z,13.50
2019-02-04T06:08:29.929Z,12.97
2019-02-04T06:11:00.979Z,13.23
2019-02-04T06:13:32.039Z,10.20
2019-02-04T06:16:03.417Z,11.30
2019-02-04T06:18:34.488Z,10.87
2019-02-04T06:21:05.517Z,14.57
2019-02-04T06:23:36.655Z,16.13
2019-02-04T06:26:07.740Z,10.80
2019-02-04T06:28:39.223Z,11.60
2019-02-04T06:31:10.255Z,11.30
2019-02-04T06:33:41.327Z,11.00
2019-02-04T06:36:12.351Z,11.93
2019-02-04T06:38:43.431Z,11.80
2019-02-04T06:41:14.883Z,11.90
2019-02-04T06:43:45.970Z,12.90
2019-02-04T06:46:17.002Z,11.07
2019-02-04T06:48:48.066Z,16.20
2019-02-04T06:51:19.088Z,13.17
2019-02-04T06:53:50.465Z,14.83
2019-02-04T06:56:21.490Z,12.60
2019-02-04T06:58:52.621Z,15.60
2019-02-04T07:01:23.649Z,15.03
2019-02-04T07:03:54.692Z,15.30
2019-02-04T07:06:25.720Z,11.97
2019-02-04T07:08:56.848Z,13.33
2019-02-04T07:11:27.933Z,16.13
2019-02-04T07:13:58.961Z,14.77
2019-02-04T07:16:30.018Z,12.17
2019-02-04T07:19:01.053Z,11.80
2019-02-04T07:21:32.118Z,14.57
2019-02-04T07:24:03.145Z,13.13
2019-02-04T07:26:34.216Z,13.33
2019-02-04T07:29:05.275Z,14.43
2019-02-04T07:31:36.362Z,10.63
2019-02-04T07:34:07.485Z,14.13
2019-02-04T07:36:38.563Z,12.83
2019-02-04T07:39:10.449Z,11.83
2019-02-04T07:41:41.523Z,12.27
2019-02-04T10:33:03.444Z,24.10
2019-02-04T11:27:32.836Z,14.97
2019-02-04T12:28:42.249Z,15.40
2019-02-04T12:37:54.620Z,16.37
2019-02-04T12:43:46.897Z,16.03
2019-02-04T12:58:55.078Z,13.37
2019-02-04T13:04:18.752Z,17.97
2019-02-04T13:16:45.991Z,12.60
2019-02-04T13:28:34.110Z,12.43
2019-02-04T13:31:26.605Z,10.17
2019-02-04T13:57:57.059Z,7.67
2019-02-04T14:15:48.964Z,9.20
2019-02-04T14:39:00.970Z,8.17
2019-02-04T14:41:32.091Z,9.87
2019-02-04T14:44:32.818Z,8.90
2019-02-04T14:47:37.282Z,8.13
2019-02-04T14:51:10.131Z,7.83
2019-02-04T14:54:37.993Z,7.97
2019-02-04T14:58:16.250Z,8.93
2019-02-04T15:02:02.498Z,8.20
2019-02-04T15:05:18.205Z,7.50
2019-02-04T15:08:45.562Z,6.63
2019-02-04T15:11:53.666Z,7.23
2019-02-04T15:15:13.063Z,6.93
2019-02-04T15:18:49.984Z,7.90
2019-02-04T15:22:33.767Z,8.10
2019-02-04T15:26:31.736Z,8.63
2019-02-04T15:29:46.777Z,8.07
2019-02-04T15:33:07.673Z,7.10
2019-02-04T15:36:36.396Z,7.67
2019-02-04T15:40:19.078Z,6.73
2019-02-04T15:43:46.567Z,10.87
2019-02-04T15:47:06.928Z,9.10
2019-02-04T15:50:36.287Z,8.50
2019-02-04T15:53:08.642Z,8.40
2019-02-04T15:55:42.998Z,9.00
2019-02-04T15:58:14.496Z,10.07
2019-02-04T16:00:48.480Z,8.63
2019-02-04T16:03:20.366Z,11.10
2019-02-04T16:05:52.771Z,8.30
2019-02-04T16:08:24.719Z,8.27
2019-02-04T16:10:55.742Z,9.57
2019-02-04T16:13:27.706Z,9.93
2019-02-04T16:15:58.677Z,8.07
2019-02-04T16:18:30.624Z,8.93
2019-02-04T16:21:01.733Z,10.60
2019-02-04T16:23:32.746Z,9.23
2019-02-04T16:26:05.110Z,8.27
2019-02-04T16:28:36.177Z,10.47
2019-02-04T16:31:08.571Z,11.90
2019-02-04T16:33:39.536Z,9.93
2019-02-04T16:36:11.728Z,10.90
2019-02-04T16:38:43.961Z,9.30
2019-02-04T16:41:16.184Z,10.77
2019-02-04T16:43:49.468Z,8.90
2019-02-04T16:46:20.941Z,11.77
2019-02-04T16:48:51.901Z,9.40
2019-02-04T16:51:23.764Z,12.07
2019-02-04T16:53:56.525Z,11.97
2019-02-04T16:56:30.027Z,13.03
2019-02-04T16:59:01.448Z,10.80
2019-02-04T17:01:32.818Z,12.67
2019-02-04T17:04:04.000Z,10.97
2019-02-04T17:06:35.144Z,13.90
2019-02-04T17:09:10.377Z,11.13
2019-02-04T17:11:42.354Z,13.53
2019-02-04T17:14:14.830Z,12.73
2019-02-04T17:16:46.567Z,13.07
2019-02-04T17:19:17.694Z,13.30
2019-02-04T17:21:48.835Z,11.27
2019-02-04T17:24:19.950Z,12.70
2019-02-04T17:26:51.122Z,11.33
2019-02-04T17:29:22.280Z,11.67
2019-02-04T17:31:54.515Z,11.47
2019-02-04T17:34:28.514Z,12.63
2019-02-04T17:37:00.449Z,11.03
2019-02-04T17:39:34.210Z,12.57
2019-02-04T17:42:06.378Z,11.57
2019-02-04T17:44:39.048Z,13.40
2019-02-04T17:47:11.241Z,12.07
2019-02-04T17:49:42.408Z,11.60
2019-02-04T17:52:15.130Z,11.83
2019-02-04T17:54:46.200Z,11.47
2019-02-04T17:57:18.374Z,11.17
2019-02-04T17:59:49.391Z,9.70
2019-02-04T18:02:20.453Z,8.37
2019-02-04T18:04:52.851Z,8.37
2019-02-04T18:07:25.164Z,10.97
2019-02-04T18:09:56.218Z,10.47
2019-02-04T18:12:27.337Z,13.90
2019-02-04T18:14:59.113Z,9.87
2019-02-04T18:17:30.226Z,13.93
2019-02-04T18:20:02.150Z,9.77
2019-02-04T18:22:33.157Z,9.03
2019-02-04T18:25:05.991Z,10.93
2019-02-04T18:27:37.073Z,12.00
2019-02-04T18:30:11.891Z,9.07
2019-02-04T18:32:43.081Z,10.53
2019-02-04T18:35:15.550Z,10.33
2019-02-04T18:37:47.850Z,10.43
2019-02-04T18:40:20.529Z,12.13
2019-02-04T18:42:53.336Z,8.90
2019-02-04T18:45:30.228Z,25.40
2019-02-04T18:48:01.929Z,9.50
2019-02-04T18:50:34.839Z,8.90
2019-02-04T18:53:06.785Z,8.57
2019-02-04T18:55:39.474Z,9.20
2019-02-04T18:58:10.872Z,9.93
2019-02-04T19:00:41.839Z,9.13
2019-02-04T19:03:17.286Z,8.80
2019-02-04T19:05:45.648Z,7.97
2019-02-04T19:08:16.594Z,7.00
2019-02-04T19:10:47.527Z,7.90
2019-02-04T19:13:18.691Z,7.97
2019-02-04T19:15:49.822Z,8.57
2019-02-04T19:18:21.767Z,9.10
2019-02-04T19:20:59.752Z,8.67
2019-02-04T19:23:32.924Z,8.60
2019-02-04T19:26:04.575Z,7.40
2019-02-04T19:28:36.428Z,6.97
2019-02-04T19:31:24.527Z,7.07
2019-02-04T19:33:56.030Z,8.53
2019-02-04T19:37:22.967Z,12.17
2019-02-04T19:41:07.569Z,9.30
2019-02-04T19:44:14.668Z,8.67
2019-02-04T19:50:35.845Z,9.00
2019-02-04T19:53:25.527Z,8.63
2019-02-04T19:56:00.517Z,8.53
2019-02-04T20:01:40.749Z,7.80
2019-02-04T20:05:06.291Z,8.07
2019-02-04T20:08:24.806Z,12.10
2019-02-04T20:24:13.077Z,6.63
2019-02-04T20:26:46.573Z,6.23
2019-02-04T20:29:21.737Z,7.60
2019-02-04T20:31:53.596Z,7.10
2019-02-04T20:34:25.217Z,6.33
2019-02-04T20:36:57.442Z,7.27
2019-02-04T20:39:28.470Z,7.60
2019-02-04T20:41:59.512Z,7.17
2019-02-04T20:44:30.402Z,7.30
2019-02-04T20:47:01.373Z,6.67
2019-02-04T20:49:32.275Z,7.03
2019-02-04T20:52:03.188Z,6.50
2019-02-04T20:54:44.780Z,7.00
2019-02-04T20:59:41.962Z,7.20
2019-02-04T21:02:13.640Z,6.53
2019-02-04T21:04:44.494Z,7.67
2019-02-04T21:07:18.858Z,6.23
2019-02-04T21:09:52.252Z,8.37
2019-02-04T21:12:27.140Z,5.97
2019-02-04T21:15:00.382Z,5.77
2019-02-04T21:17:31.666Z,7.13
2019-02-04T21:20:02.647Z,6.27
2019-02-04T21:22:34.405Z,6.67
2019-02-04T21:25:08.028Z,9.00
2019-02-04T21:27:39.595Z,6.13
2019-02-04T21:30:30.416Z,8.00
2019-02-04T21:33:01.771Z,5.93
2019-02-04T21:35:32.681Z,7.40
2019-02-04T21:38:03.607Z,6.30
2019-02-04T21:40:34.655Z,10.60
2019-02-04T21:43:09.353Z,6.73
2019-02-04T21:45:40.282Z,6.87
2019-02-04T21:48:11.322Z,7.20
2019-02-04T21:50:42.893Z,5.73
2019-02-04T21:53:13.818Z,7.53
2019-02-04T21:55:45.815Z,6.60
2019-02-04T21:58:17.468Z,6.77
2019-02-04T22:00:48.675Z,7.13
2019-02-04T22:03:19.884Z,6.57
2019-02-04T22:05:53.603Z,7.83
2019-02-04T22:08:24.614Z,6.10
2019-02-04T22:10:55.749Z,8.07
2019-02-04T22:13:27.804Z,8.30
2019-02-04T22:16:00.090Z,10.73
2019-02-04T22:18:32.269Z,7.83
2019-02-04T22:21:04.300Z,8.47
2019-02-04T22:23:38.798Z,7.63
2019-02-04T22:26:10.789Z,8.43
2019-02-04T22:28:42.947Z,7.20
2019-02-04T22:31:14.976Z,8.27
2019-02-04T22:33:48.064Z,10.83
2019-02-04T22:36:20.148Z,15.00
2019-02-04T22:38:52.260Z,7.90
2019-02-04T22:41:24.281Z,7.83
2019-02-04T22:43:56.391Z,9.00
2019-02-04T22:46:28.430Z,9.37
2019-02-04T22:49:00.508Z,7.37
2019-02-04T22:51:32.504Z,6.70
2019-02-04T22:54:04.697Z,15.37
2019-02-04T22:56:36.449Z,8.90
2019-02-04T22:59:08.652Z,8.67
2019-02-04T23:01:50.704Z,7.03
2019-02-04T23:04:23.143Z,8.90
2019-02-04T23:06:56.635Z,8.97
2019-02-04T23:09:28.767Z,8.63
2019-02-04T23:12:01.177Z,14.37
2019-02-04T23:14:33.345Z,9.60
2019-02-04T23:17:05.782Z,8.93
2019-02-04T23:19:37.822Z,9.30
2019-02-04T23:46:41.106Z,9.00
